createdAt,value
2023-03-16T00:00:13.746Z,100955.56
2023-03-16T00:02:42.925Z,100957.22
2023-03-16T00:05:11.213Z,100952.94
2023-03-16T00:07:39.707Z,100950.38
2023-03-16T00:10:08.699Z,100946.09
2023-03-16T00:12:36.470Z,100954.66
2023-03-16T00:15:06.786Z,100951.16
2023-03-16T00:17:34.851Z,100958.78
2023-03-16T00:20:06.515Z,100958.75
2023-03-16T00:22:35.519Z,100959.59
2023-03-16T00:25:04.965Z,100957.88
2023-03-16T00:27:32.735Z,100955.31
2023-03-16T00:30:03.711Z,100961.31
2023-03-16T00:32:36.153Z,100960.50
2023-03-16T00:35:09.152Z,100964.75
2023-03-16T00:37:39.762Z,100957.03
2023-03-16T00:40:11.678Z,100955.31
2023-03-16T00:42:39.528Z,100955.31
2023-03-16T00:45:10.950Z,100951.88
2023-03-16T00:47:42.190Z,100953.63
2023-03-16T00:50:11.767Z,100956.22
2023-03-16T00:52:39.535Z,100951.09
2023-03-16T00:55:08.570Z,100942.56
2023-03-16T00:57:37.618Z,100939.94
2023-03-16T01:00:12.787Z,100939.06
2023-03-16T01:02:42.107Z,100937.34
2023-03-16T01:05:10.620Z,100941.59
2023-03-16T01:07:38.978Z,100936.47
2023-03-16T01:10:07.856Z,100928.72
2023-03-16T01:12:35.700Z,100932.09
2023-03-16T01:15:04.587Z,100933.84
2023-03-16T01:17:35.107Z,100942.41
2023-03-16T01:20:11.804Z,100939.03
2023-03-16T01:22:39.797Z,100939.03
2023-03-16T01:25:09.569Z,100939.06
2023-03-16T01:27:37.870Z,100940.75
2023-03-16T01:30:06.695Z,100941.59
2023-03-16T01:32:35.383Z,100943.28
2023-03-16T01:35:05.985Z,100938.19
2023-03-16T01:37:33.638Z,100927.94
2023-03-16T01:40:13.865Z,100931.34
2023-03-16T01:42:50.005Z,100927.94
2023-03-16T01:45:57.016Z,100915.94
2023-03-16T01:48:27.204Z,100920.13
2023-03-16T01:50:58.039Z,100922.72
2023-03-16T01:53:26.873Z,100911.59
2023-03-16T01:55:55.628Z,100920.94
2023-03-16T01:58:24.020Z,100923.50
2023-03-16T02:00:52.589Z,100920.09
2023-03-16T02:03:23.876Z,100910.72
2023-03-16T02:06:10.288Z,100903.91
2023-03-16T02:08:43.794Z,100897.97
2023-03-16T02:11:12.483Z,100895.41
2023-03-16T02:14:09.156Z,100891.09
2023-03-16T02:16:37.234Z,100889.38
2023-03-16T02:19:11.845Z,100889.31
2023-03-16T02:21:48.656Z,100885.09
2023-03-16T02:24:16.462Z,100880.00
2023-03-16T02:26:49.571Z,100873.16
2023-03-16T02:29:33.863Z,100872.31
2023-03-16T02:32:05.480Z,100863.81
2023-03-16T02:34:33.478Z,100869.81
2023-03-16T02:37:02.792Z,100869.78
2023-03-16T02:39:31.640Z,100875.75
2023-03-16T02:42:02.709Z,100879.16
2023-03-16T02:44:34.699Z,100877.47
2023-03-16T02:47:13.248Z,100877.44
2023-03-16T02:49:43.793Z,100871.50
2023-03-16T02:52:12.616Z,100867.19
2023-03-16T02:54:40.539Z,100864.63
2023-03-16T02:57:10.091Z,100856.09
2023-03-16T02:59:38.021Z,100848.44
2023-03-16T03:02:09.214Z,100856.13
2023-03-16T03:04:38.858Z,100851.84
2023-03-16T03:07:07.704Z,100849.25
2023-03-16T03:09:53.657Z,100854.34
2023-03-16T03:12:21.728Z,100851.81
2023-03-16T03:14:50.258Z,100846.72
2023-03-16T03:17:30.339Z,100849.28
2023-03-16T03:20:00.573Z,100838.19
2023-03-16T03:22:28.770Z,100846.69
2023-03-16T03:24:56.670Z,100848.34
2023-03-16T03:27:24.728Z,100848.25
2023-03-16T03:29:54.502Z,100841.34
2023-03-16T03:32:23.730Z,100842.13
2023-03-16T03:34:52.903Z,100840.41
2023-03-16T03:37:20.623Z,100829.34
2023-03-16T03:39:48.917Z,100830.19
2023-03-16T03:42:17.442Z,100840.44
2023-03-16T03:44:46.809Z,100839.59
2023-03-16T03:47:14.488Z,100834.47
2023-03-16T03:49:45.856Z,100834.47
2023-03-16T03:52:13.978Z,100838.69
2023-03-16T03:54:41.651Z,100835.28
2023-03-16T03:57:19.420Z,100833.66
2023-03-16T03:59:48.746Z,100834.56
2023-03-16T04:02:22.324Z,100832.88
2023-03-16T04:04:54.964Z,100827.78
2023-03-16T04:07:22.979Z,100826.09
2023-03-16T04:09:54.246Z,100820.13
2023-03-16T04:12:28.058Z,100832.06
2023-03-16T04:14:56.310Z,100831.19
2023-03-16T04:17:25.430Z,100826.91
2023-03-16T04:19:55.684Z,100834.63
2023-03-16T04:22:23.525Z,100835.34
2023-03-16T04:24:52.954Z,100831.91
2023-03-16T04:27:22.092Z,100828.59
2023-03-16T04:29:49.809Z,100831.13
2023-03-16T04:32:17.679Z,100836.25
2023-03-16T04:34:48.218Z,100831.94
2023-03-16T04:37:19.472Z,100841.31
2023-03-16T04:39:48.236Z,100834.41
2023-03-16T04:42:16.020Z,100828.44
2023-03-16T04:44:45.521Z,100831.81
2023-03-16T04:47:17.054Z,100829.28
2023-03-16T04:49:46.513Z,100832.69
2023-03-16T04:52:14.445Z,100842.03
2023-03-16T04:54:44.374Z,100845.44
2023-03-16T04:57:18.976Z,100842.88
2023-03-16T04:59:49.502Z,100836.00
2023-03-16T05:02:24.516Z,100826.59
2023-03-16T05:04:52.864Z,100827.53
2023-03-16T05:07:21.125Z,100825.00
2023-03-16T05:09:55.498Z,100824.97
2023-03-16T05:12:23.391Z,100817.31
2023-03-16T05:14:55.578Z,100822.38
2023-03-16T05:17:43.355Z,100823.25
2023-03-16T05:20:16.219Z,100825.84
2023-03-16T05:22:50.258Z,100830.09
2023-03-16T05:25:25.500Z,100819.03
2023-03-16T05:27:55.614Z,100823.28
2023-03-16T05:30:31.174Z,100822.47
2023-03-16T05:33:02.874Z,100823.22
2023-03-16T05:35:30.870Z,100816.38
2023-03-16T05:38:05.228Z,100813.78
2023-03-16T05:40:37.489Z,100807.88
2023-03-16T05:43:28.767Z,100798.50
2023-03-16T05:45:56.965Z,100793.44
2023-03-16T05:48:26.369Z,100793.41
2023-03-16T05:50:57.473Z,100791.75
2023-03-16T05:53:29.691Z,100782.38
2023-03-16T05:56:06.874Z,100788.31
2023-03-16T05:58:39.254Z,100787.50
2023-03-16T06:01:09.683Z,100779.00
2023-03-16T06:03:37.566Z,100779.81
2023-03-16T06:06:07.362Z,100777.22
2023-03-16T06:08:42.882Z,100778.09
2023-03-16T06:11:15.094Z,100772.16
2023-03-16T06:13:43.484Z,100778.16
2023-03-16T06:16:14.294Z,100781.56
2023-03-16T06:18:42.251Z,100785.00
2023-03-16T06:21:11.268Z,100783.31
2023-03-16T06:23:40.289Z,100782.50
2023-03-16T06:26:09.783Z,100785.09
2023-03-16T06:28:42.639Z,100788.50
2023-03-16T06:31:11.125Z,100784.25
2023-03-16T06:33:44.708Z,100785.22
2023-03-16T06:36:13.920Z,100792.13
2023-03-16T06:38:48.589Z,100795.56
2023-03-16T06:41:26.859Z,100799.03
2023-03-16T06:43:57.290Z,100800.78
2023-03-16T06:46:25.396Z,100796.53
2023-03-16T06:48:53.716Z,100802.50
2023-03-16T06:51:22.035Z,100801.63
2023-03-16T06:53:51.188Z,100801.69
2023-03-16T06:56:19.606Z,100797.44
2023-03-16T06:58:48.300Z,100802.59
2023-03-16T07:01:17.947Z,100799.16
2023-03-16T07:03:46.066Z,100793.19
2023-03-16T07:06:23.131Z,100792.31
2023-03-16T07:08:51.532Z,100792.28
2023-03-16T07:11:21.267Z,100796.53
2023-03-16T07:13:49.820Z,100793.16
2023-03-16T07:16:21.941Z,100791.44
2023-03-16T07:18:50.083Z,100792.31
2023-03-16T07:21:22.896Z,100800.03
2023-03-16T07:23:53.794Z,100795.75
2023-03-16T07:26:25.764Z,100796.63
2023-03-16T07:28:58.211Z,100796.63
2023-03-16T07:31:28.173Z,100800.06
2023-03-16T07:33:58.332Z,100803.50
2023-03-16T07:36:34.748Z,100802.66
2023-03-16T07:39:06.160Z,100802.66
2023-03-16T07:41:35.880Z,100799.22
2023-03-16T07:44:16.158Z,100799.25
2023-03-16T07:46:49.493Z,100798.34
2023-03-16T07:49:18.194Z,100797.50
2023-03-16T07:51:48.002Z,100797.44
2023-03-16T07:54:18.840Z,100793.97
2023-03-16T07:56:49.519Z,100795.63
2023-03-16T07:59:28.711Z,100793.03
2023-03-16T08:01:58.454Z,100796.44
2023-03-16T08:04:26.355Z,100799.88
2023-03-16T08:07:01.092Z,100790.34
2023-03-16T08:09:43.614Z,100795.31
2023-03-16T08:12:16.049Z,100784.91
2023-03-16T08:14:45.534Z,100783.94
2023-03-16T08:17:22.485Z,100782.97
2023-03-16T08:19:51.306Z,100775.09
2023-03-16T08:22:22.970Z,100772.88
2023-03-16T08:24:52.067Z,100784.63
2023-03-16T08:27:20.684Z,100779.72
2023-03-16T08:29:54.529Z,100777.53
2023-03-16T08:32:27.907Z,100775.06
2023-03-16T08:34:57.127Z,100770.75
2023-03-16T08:37:25.932Z,100761.53
2023-03-16T08:39:56.277Z,100748.19
2023-03-16T08:42:25.521Z,100748.72
2023-03-16T08:45:00.846Z,100734.78
2023-03-16T08:47:33.245Z,100733.66
2023-03-16T08:50:01.724Z,100735.72
2023-03-16T08:52:29.473Z,100734.97
2023-03-16T08:55:03.309Z,100745.28
2023-03-16T08:57:32.774Z,100740.97
2023-03-16T09:00:04.190Z,100728.69
2023-03-16T09:02:33.567Z,100732.19
2023-03-16T09:05:02.753Z,100746.59
2023-03-16T09:07:30.641Z,100748.75
2023-03-16T09:09:58.371Z,100745.72
2023-03-16T09:12:26.780Z,100739.00
2023-03-16T09:14:55.372Z,100733.59
2023-03-16T09:17:23.157Z,100729.28
2023-03-16T09:19:55.006Z,100725.00
2023-03-16T09:22:25.647Z,100727.88
2023-03-16T09:24:53.720Z,100713.59
2023-03-16T09:27:22.467Z,100714.66
2023-03-16T09:29:50.987Z,100709.41
2023-03-16T09:32:18.925Z,100702.50
2023-03-16T09:34:47.457Z,100708.75
2023-03-16T09:37:16.495Z,100703.44
2023-03-16T09:39:45.638Z,100701.94
2023-03-16T09:42:20.822Z,100709.56
2023-03-16T09:45:01.018Z,100709.69
2023-03-16T09:47:32.083Z,100706.63
2023-03-16T09:50:04.126Z,100701.81
2023-03-16T09:52:44.708Z,100705.69
2023-03-16T09:55:27.681Z,100693.66
2023-03-16T09:57:58.853Z,100690.50
2023-03-16T10:00:29.733Z,100677.44
2023-03-16T10:03:11.240Z,100678.69
2023-03-16T10:05:40.994Z,100666.53
2023-03-16T10:08:15.047Z,100663.50
2023-03-16T10:10:59.914Z,100658.56
2023-03-16T10:13:35.310Z,100659.81
2023-03-16T10:16:09.695Z,100663.13
2023-03-16T10:18:44.963Z,100654.63
2023-03-16T10:21:15.163Z,100649.06
2023-03-16T10:23:45.116Z,100647.56
2023-03-16T10:26:22.932Z,100646.88
2023-03-16T10:28:50.929Z,100640.50
2023-03-16T10:31:22.922Z,100649.72
2023-03-16T10:33:55.594Z,100643.75
2023-03-16T10:36:30.504Z,100647.09
2023-03-16T10:39:02.984Z,100644.94
2023-03-16T10:41:33.500Z,100641.97
2023-03-16T10:44:07.553Z,100654.66
2023-03-16T10:46:40.431Z,100649.28
2023-03-16T10:49:22.534Z,100654.75
2023-03-16T10:51:51.284Z,100643.94
2023-03-16T10:54:28.068Z,100638.38
2023-03-16T10:56:56.685Z,100624.28
2023-03-16T10:59:31.955Z,100627.66
2023-03-16T11:02:02.939Z,100646.50
2023-03-16T11:04:33.636Z,100637.19
2023-03-16T11:07:02.009Z,100629.34
2023-03-16T11:09:35.558Z,100621.22
2023-03-16T11:12:15.403Z,100624.56
2023-03-16T11:14:46.059Z,100618.72
2023-03-16T11:17:17.818Z,100600.38
2023-03-16T11:19:52.550Z,100608.38
2023-03-16T11:22:24.109Z,100603.56
2023-03-16T11:24:58.194Z,100595.78
2023-03-16T11:27:27.864Z,100603.56
2023-03-16T11:30:09.590Z,100601.25
2023-03-16T11:32:40.300Z,100598.19
2023-03-16T11:35:18.295Z,100611.09
2023-03-16T11:38:12.688Z,100608.47
2023-03-16T11:40:55.936Z,100608.78
2023-03-16T11:43:53.078Z,100597.75
2023-03-16T11:46:24.576Z,100598.41
2023-03-16T11:49:12.855Z,100576.69
2023-03-16T11:51:49.548Z,100572.38
2023-03-16T11:54:42.782Z,100561.88
2023-03-16T11:57:30.786Z,100558.19
2023-03-16T12:00:10.569Z,100545.78
2023-03-16T12:02:55.929Z,100531.59
2023-03-16T12:05:47.714Z,100516.47
2023-03-16T12:08:30.539Z,100514.63
2023-03-16T12:11:03.435Z,100511.28
2023-03-16T12:13:43.358Z,100518.31
2023-03-16T12:16:19.669Z,100521.59
2023-03-16T12:18:53.161Z,100529.41
2023-03-16T12:21:25.706Z,100518.91
2023-03-16T12:23:55.360Z,100504.84
2023-03-16T12:26:29.732Z,100502.03
2023-03-16T12:29:00.071Z,100499.56
2023-03-16T12:31:37.823Z,100485.34
2023-03-16T12:34:14.632Z,100496.47
2023-03-16T12:36:58.756Z,100508.63
2023-03-16T12:39:50.339Z,100503.66
2023-03-16T12:42:35.832Z,100495.63
2023-03-16T12:45:12.551Z,100477.31
2023-03-16T12:47:52.627Z,100471.75
2023-03-16T12:50:21.435Z,100461.63
2023-03-16T12:52:52.012Z,100447.25
2023-03-16T12:55:21.654Z,100447.09
2023-03-16T12:57:52.142Z,100442.28
2023-03-16T13:00:34.621Z,100441.66
2023-03-16T13:03:04.857Z,100434.31
2023-03-16T13:05:35.098Z,100435.28
2023-03-16T13:08:09.879Z,100432.81
2023-03-16T13:10:38.701Z,100427.69
2023-03-16T13:13:12.925Z,100431.38
2023-03-16T13:16:05.037Z,100436.41
2023-03-16T13:18:41.772Z,100421.09
2023-03-16T13:21:17.769Z,100416.44
2023-03-16T13:24:14.663Z,100408.81
2023-03-16T13:26:47.482Z,100408.00
2023-03-16T13:29:23.778Z,100399.91
2023-03-16T13:31:53.591Z,100389.25
2023-03-16T13:34:25.372Z,100389.19
2023-03-16T13:36:57.784Z,100405.88
2023-03-16T13:39:28.176Z,100398.22
2023-03-16T13:42:01.504Z,100392.53
2023-03-16T13:44:30.615Z,100402.56
2023-03-16T13:46:58.904Z,100396.97
2023-03-16T13:49:28.701Z,100375.34
2023-03-16T13:51:57.027Z,100382.91
2023-03-16T13:54:28.026Z,100379.47
2023-03-16T13:56:58.785Z,100379.09
2023-03-16T13:59:27.339Z,100383.00
2023-03-16T14:02:02.155Z,100374.88
2023-03-16T14:04:34.011Z,100373.09
2023-03-16T14:07:04.507Z,100377.94
2023-03-16T14:09:34.880Z,100380.25
2023-03-16T14:12:06.851Z,100365.00
2023-03-16T14:14:41.102Z,100368.91
2023-03-16T14:17:13.633Z,100368.72
2023-03-16T14:19:47.094Z,100370.72
2023-03-16T14:22:17.218Z,100361.97
2023-03-16T14:24:47.982Z,100364.31
2023-03-16T14:27:22.381Z,100357.84
2023-03-16T14:29:58.038Z,100350.53
2023-03-16T14:32:29.460Z,100344.34
2023-03-16T14:35:14.665Z,100337.09
2023-03-16T14:37:43.651Z,100329.66
2023-03-16T14:40:24.743Z,100346.31
2023-03-16T14:42:53.786Z,100329.22
2023-03-16T14:45:22.896Z,100346.53
2023-03-16T14:47:53.684Z,100338.72
2023-03-16T14:50:26.362Z,100327.91
2023-03-16T14:52:57.899Z,100323.59
2023-03-16T14:55:26.053Z,100328.28
2023-03-16T14:57:53.906Z,100332.56
2023-03-16T15:00:23.578Z,100324.13
2023-03-16T15:03:01.864Z,100324.63
2023-03-16T15:05:36.610Z,100320.91
2023-03-16T15:08:07.348Z,100304.94
2023-03-16T15:10:37.144Z,100310.72
2023-03-16T15:13:16.883Z,100314.84
2023-03-16T15:15:46.016Z,100317.66
2023-03-16T15:18:14.039Z,100314.50
2023-03-16T15:20:46.106Z,100317.97
2023-03-16T15:23:17.495Z,100311.22
2023-03-16T15:25:46.611Z,100310.91
2023-03-16T15:28:17.229Z,100297.53
2023-03-16T15:30:46.176Z,100295.91
2023-03-16T15:33:14.636Z,100304.72
2023-03-16T15:35:44.900Z,100292.84
2023-03-16T15:38:16.671Z,100295.75
2023-03-16T15:40:45.610Z,100297.09
2023-03-16T15:43:13.868Z,100296.50
2023-03-16T15:45:41.881Z,100293.81
2023-03-16T15:48:11.034Z,100282.78
2023-03-16T15:50:40.862Z,100280.91
2023-03-16T15:53:27.665Z,100277.69
2023-03-16T15:56:03.268Z,100275.78
2023-03-16T15:58:33.343Z,100272.41
2023-03-16T16:01:04.125Z,100265.94
2023-03-16T16:03:33.643Z,100259.94
2023-03-16T16:06:03.105Z,100260.59
2023-03-16T16:08:32.318Z,100252.91
2023-03-16T16:11:00.868Z,100246.53
2023-03-16T16:13:43.808Z,100253.66
2023-03-16T16:16:14.526Z,100258.31
2023-03-16T16:18:42.820Z,100272.53
2023-03-16T16:21:16.958Z,100255.56
2023-03-16T16:23:46.727Z,100262.53
2023-03-16T16:26:27.927Z,100251.69
2023-03-16T16:28:59.791Z,100261.13
2023-03-16T16:31:31.508Z,100262.66
2023-03-16T16:34:00.028Z,100259.78
2023-03-16T16:36:32.163Z,100260.69
2023-03-16T16:39:02.773Z,100252.38
2023-03-16T16:41:33.157Z,100253.94
2023-03-16T16:44:08.071Z,100260.28
2023-03-16T16:46:40.104Z,100258.06
2023-03-16T16:49:15.120Z,100258.38
2023-03-16T16:51:43.670Z,100258.63
2023-03-16T16:54:21.290Z,100256.59
2023-03-16T16:56:51.272Z,100258.44
2023-03-16T16:59:21.126Z,100264.13
2023-03-16T17:01:51.727Z,100263.13
2023-03-16T17:04:23.154Z,100262.63
2023-03-16T17:06:55.092Z,100264.00
2023-03-16T17:09:24.868Z,100273.22
2023-03-16T17:11:54.050Z,100263.34
2023-03-16T17:14:23.698Z,100269.41
2023-03-16T17:16:51.855Z,100266.94
2023-03-16T17:19:23.161Z,100265.38
2023-03-16T17:21:51.580Z,100268.31
2023-03-16T17:24:19.363Z,100263.41
2023-03-16T17:26:52.163Z,100264.53
2023-03-16T17:29:23.102Z,100272.91
2023-03-16T17:31:51.351Z,100263.72
2023-03-16T17:34:21.422Z,100263.78
2023-03-16T17:36:49.475Z,100270.50
2023-03-16T17:39:19.006Z,100265.44
2023-03-16T17:41:49.368Z,100261.13
2023-03-16T17:44:19.947Z,100265.53
2023-03-16T17:46:48.037Z,100258.03
2023-03-16T17:49:18.374Z,100250.13
2023-03-16T17:51:46.652Z,100267.53
2023-03-16T17:54:15.541Z,100274.59
2023-03-16T17:56:43.572Z,100271.81
2023-03-16T17:59:18.316Z,100281.00
2023-03-16T18:01:47.442Z,100278.56
2023-03-16T18:04:18.275Z,100273.59
2023-03-16T18:06:48.226Z,100278.09
2023-03-16T18:09:17.556Z,100273.06
2023-03-16T18:11:47.892Z,100269.75
2023-03-16T18:14:25.370Z,100268.22
2023-03-16T18:16:54.686Z,100259.66
2023-03-16T18:19:25.545Z,100252.00
2023-03-16T18:21:54.594Z,100247.94
2023-03-16T18:24:26.023Z,100254.13
2023-03-16T18:26:53.662Z,100249.94
2023-03-16T18:29:23.266Z,100249.16
2023-03-16T18:31:55.041Z,100242.47
2023-03-16T18:34:25.333Z,100244.06
2023-03-16T18:36:54.872Z,100251.94
2023-03-16T18:39:23.314Z,100249.59
2023-03-16T18:41:51.103Z,100255.75
2023-03-16T18:44:21.797Z,100257.72
2023-03-16T18:46:52.815Z,100263.78
2023-03-16T18:49:23.773Z,100253.50
2023-03-16T18:51:53.551Z,100253.63
2023-03-16T18:54:23.540Z,100251.94
2023-03-16T18:56:55.298Z,100254.63
2023-03-16T18:59:28.099Z,100254.66
2023-03-16T19:01:59.143Z,100251.34
2023-03-16T19:04:36.301Z,100255.91
2023-03-16T19:07:12.402Z,100255.06
2023-03-16T19:09:40.613Z,100256.91
2023-03-16T19:12:15.950Z,100257.88
2023-03-16T19:14:43.872Z,100259.63
2023-03-16T19:17:13.362Z,100255.41
2023-03-16T19:19:42.266Z,100254.59
2023-03-16T19:22:17.479Z,100265.00
2023-03-16T19:24:48.673Z,100259.88
2023-03-16T19:27:22.849Z,100258.28
2023-03-16T19:29:52.314Z,100253.19
2023-03-16T19:32:23.522Z,100256.81
2023-03-16T19:34:51.283Z,100247.47
2023-03-16T19:37:19.776Z,100251.13
2023-03-16T19:39:47.945Z,100245.22
2023-03-16T19:42:23.271Z,100252.31
2023-03-16T19:44:51.700Z,100243.69
2023-03-16T19:47:28.925Z,100250.75
2023-03-16T19:49:56.884Z,100248.19
2023-03-16T19:52:27.341Z,100247.41
2023-03-16T19:54:55.498Z,100249.97
2023-03-16T19:57:26.341Z,100253.56
2023-03-16T19:59:57.938Z,100251.97
2023-03-16T20:02:30.805Z,100251.19
2023-03-16T20:04:59.166Z,100248.66
2023-03-16T20:07:28.259Z,100253.06
2023-03-16T20:09:57.263Z,100253.09
2023-03-16T20:12:28.164Z,100252.22
2023-03-16T20:14:58.296Z,100246.19
2023-03-16T20:17:30.271Z,100243.59
2023-03-16T20:19:58.312Z,100238.53
2023-03-16T20:22:29.971Z,100243.81
2023-03-16T20:24:58.294Z,100248.25
2023-03-16T20:27:29.993Z,100243.94
2023-03-16T20:29:57.882Z,100236.41
2023-03-16T20:32:36.453Z,100238.16
2023-03-16T20:35:08.468Z,100238.16
2023-03-16T20:37:36.768Z,100229.63
2023-03-16T20:40:05.306Z,100232.13
2023-03-16T20:42:35.540Z,100233.31
2023-03-16T20:45:11.031Z,100218.97
2023-03-16T20:47:41.692Z,100228.78
2023-03-16T20:50:19.396Z,100227.81
2023-03-16T20:52:48.010Z,100224.41
2023-03-16T20:55:17.781Z,100219.28
2023-03-16T20:57:47.584Z,100220.16
2023-03-16T21:00:23.975Z,100222.78
2023-03-16T21:02:55.148Z,100209.00
2023-03-16T21:05:25.843Z,100214.13
2023-03-16T21:07:55.085Z,100211.53
2023-03-16T21:10:25.927Z,100209.88
2023-03-16T21:12:56.548Z,100210.19
2023-03-16T21:15:27.991Z,100216.31
2023-03-16T21:18:01.621Z,100218.19
2023-03-16T21:20:34.363Z,100216.44
2023-03-16T21:23:04.739Z,100218.25
2023-03-16T21:25:38.602Z,100218.31
2023-03-16T21:28:08.416Z,100206.28
2023-03-16T21:30:43.957Z,100209.75
2023-03-16T21:33:20.889Z,100210.44
2023-03-16T21:35:49.143Z,100220.63
2023-03-16T21:38:19.436Z,100224.84
2023-03-16T21:40:49.436Z,100224.78
2023-03-16T21:43:17.546Z,100217.91
2023-03-16T21:45:47.129Z,100216.25
2023-03-16T21:48:21.561Z,100213.94
2023-03-16T21:50:50.683Z,100214.78
2023-03-16T21:53:23.874Z,100211.50
2023-03-16T21:55:53.509Z,100206.44
2023-03-16T21:58:23.303Z,100205.53
2023-03-16T22:00:53.095Z,100207.28
2023-03-16T22:03:37.749Z,100204.91
2023-03-16T22:06:13.618Z,100207.47
2023-03-16T22:08:41.797Z,100210.97
2023-03-16T22:11:17.946Z,100199.81
2023-03-16T22:13:46.589Z,100193.97
2023-03-16T22:16:16.573Z,100179.38
2023-03-16T22:18:47.508Z,100183.88
2023-03-16T22:21:32.698Z,100178.50
2023-03-16T22:24:02.287Z,100181.84
2023-03-16T22:26:30.842Z,100174.97
2023-03-16T22:29:01.259Z,100174.84
2023-03-16T22:31:34.470Z,100174.69
2023-03-16T22:34:05.840Z,100181.53
2023-03-16T22:36:35.299Z,100172.88
2023-03-16T22:39:08.338Z,100180.63
2023-03-16T22:41:36.551Z,100178.91
2023-03-16T22:44:05.615Z,100174.59
2023-03-16T22:46:33.340Z,100170.38
2023-03-16T22:49:01.830Z,100175.91
2023-03-16T22:51:34.400Z,100173.44
2023-03-16T22:54:05.496Z,100159.03
2023-03-16T22:56:34.245Z,100160.66
2023-03-16T22:59:05.782Z,100160.06
2023-03-16T23:01:35.930Z,100165.91
2023-03-16T23:04:04.541Z,100158.97
2023-03-16T23:06:33.657Z,100160.56
2023-03-16T23:09:02.572Z,100158.84
2023-03-16T23:11:33.058Z,100151.97
2023-03-16T23:14:02.195Z,100146.72
2023-03-16T23:16:33.958Z,100151.00
2023-03-16T23:19:04.378Z,100145.94
2023-03-16T23:21:34.902Z,100145.94
2023-03-16T23:24:04.644Z,100151.16
2023-03-16T23:26:33.289Z,100135.88
2023-03-16T23:29:01.465Z,100145.59
2023-03-16T23:31:30.758Z,100140.63
2023-03-16T23:33:58.647Z,100144.25
2023-03-16T23:36:27.195Z,100143.59
2023-03-16T23:38:56.466Z,100142.78
2023-03-16T23:41:25.765Z,100139.31
2023-03-16T23:43:54.669Z,100145.31
2023-03-16T23:46:24.822Z,100145.25
2023-03-16T23:48:54.396Z,100139.31
2023-03-16T23:51:25.481Z,100150.31
2023-03-16T23:53:53.441Z,100139.97
2023-03-16T23:56:23.166Z,100141.78
2023-03-16T23:58:51.142Z,100139.97
